Startpagina
METAR-TAF:

METAR-TAF

Vliegvelden :

Curaçao, Nederlandse Antillen

Curaçao International Airport

breedte: 12-12N, lengte: 068-58W, hoogte: 9 m

Actueel weer

Dit bericht is 54 minuten geleden gemaakt, om 17:00 UTC
Wind 8 kt uit het oosten
Temperatuur 30°C
Vochtigheid 75%
Druk 1008 hPa
Zicht 10 km of meer
Gebroken wolken op 2000 ft

METAR: TNCC 181700Z 09008KT 9999 BKN020 30/25 Q1008 NOSIG

Tijdstip: 13:54 (17:54 UTC)

Verwachting

Dit bericht is 1 uur en het 54 minuten geleden gemaakt, om 16:00 UTC
Verwachting geldig van 18 om 18 UTC tot 19 om 18 UTC
Wind 6 kt uit het oosten
Zicht 10 km of meer
Verspreide wolken op 2000 ft
Tijdelijke
van 18 om 18 UTC tot 19 om 14 UTC
Wind 5 kt uit variabele richting
Tijdelijke
van 19 om 03 UTC tot 19 om 18 UTC
Gebroken wolken op 1400 ft
Kans 30%
van 19 om 04 UTC tot 19 om 16 UTC
Zicht: 3000 m
Verspreide wolken op 1200 ft, Cumulonimbus.
onweer, regen

TAF: TNCC 181600Z 1818/1918 08006KT 9999 SCT020 TEMPO 1818/1914 VRB05KT TEMPO 1903/1918 BKN014 PROB30 1904/1916 3000 TSRA SCT012CB

Waarnemingen en weersverwachtingen van meer dan 4000 vliegvelden (METAR en TAF).

De beschikbare stations zijn de gele en rode punten op de kaart.

Ga met uw muis naar het station om de naam te zien.

Klik dan om waarnemingen en weersverwachtingen te zien.

kaart wijzigen: klik op de groene knoppen met een zwart kruis om in te zoomen, op de groene knop met een streepje om uit te zoomen of op de groene pijlen voor aangrenzende kaarten.


METAR-TAF: